Time;durP1;ratioP1;P1;durP2;ratioP2;P2;SDS_P1;SDS_P2;PMS_P1;PMS_P2;Temp;Humidity;BMP_temperature;BMP_pressure;BME280_temperature;BME280_humidity;BME280_pressure;Samples;Min_cycle;Max_cycle;Signal;HPM_P1;HPM_P2
2024/01/19 00:00:12;;;;;;;4.90;3.70;;;1.30;1.00;;;;;;5270728;28;20339;-34
2024/01/19 00:02:43;;;;;;;6.90;4.65;;;1.20;1.00;;;;;;5292805;28;20031;-34
2024/01/19 00:05:14;;;;;;;6.63;4.05;;;1.20;1.00;;;;;;5293480;28;20023;-36
2024/01/19 00:07:46;;;;;;;5.85;4.25;;;1.20;1.00;;;;;;5274119;28;20042;-36
2024/01/19 00:10:17;;;;;;;6.63;3.95;;;1.20;1.00;;;;;;5272894;28;20640;-36
2024/01/19 00:12:48;;;;;;;5.03;3.75;;;1.20;1.00;;;;;;5283401;28;20035;-35
2024/01/19 00:15:19;;;;;;;7.07;3.65;;;1.20;1.00;;;;;;5289210;28;20049;-35
2024/01/19 00:17:56;;;;;;;6.03;4.07;;;1.20;99.90;;;;;;5292682;28;20035;-34
2024/01/19 00:20:27;;;;;;;6.15;3.33;;;1.20;99.90;;;;;;5272432;28;20035;-33
2024/01/19 00:23:01;;;;;;;4.65;3.35;;;1.20;99.90;;;;;;5268645;28;20058;-31
2024/01/19 00:25:35;;;;;;;5.28;3.78;;;1.20;99.90;;;;;;5285966;28;20043;-32
2024/01/19 00:28:06;;;;;;;5.88;3.78;;;1.20;99.90;;;;;;5293108;28;20203;-32
2024/01/19 00:30:40;;;;;;;4.50;3.42;;;1.20;99.90;;;;;;5284142;28;20055;-32
2024/01/19 00:33:11;;;;;;;;;;;1.20;99.90;;;;;;5293163;28;20043;-32
2024/01/19 00:35:45;;;;;;;4.72;3.70;;;1.20;99.90;;;;;;5290690;28;20237;-32
2024/01/19 00:38:16;;;;;;;6.15;3.75;;;1.20;99.90;;;;;;5291926;28;20042;-32
2024/01/19 00:40:50;;;;;;;4.65;3.20;;;1.20;99.90;;;;;;5269785;28;20365;-32
2024/01/19 00:43:27;;;;;;;5.85;3.38;;;1.20;99.90;;;;;;5251059;28;20040;-32
2024/01/19 00:46:07;;;;;;;4.25;3.15;;;1.10;99.90;;;;;;5281117;28;20281;-31
2024/01/19 00:48:39;;;;;;;5.05;3.28;;;1.10;99.90;;;;;;5290049;28;20244;-31
2024/01/19 00:51:13;;;;;;;5.82;3.80;;;1.10;99.90;;;;;;5274752;28;20031;-31
2024/01/19 00:53:47;;;;;;;4.95;3.83;;;1.10;99.90;;;;;;5280017;27;20217;-34
2024/01/19 00:56:20;;;;;;;5.03;4.18;;;1.10;99.90;;;;;;5272884;28;20225;-31
2024/01/19 00:58:52;;;;;;;4.80;4.00;;;1.10;99.90;;;;;;5268642;28;20285;-31
2024/01/19 01:01:25;;;;;;;5.50;3.80;;;1.10;99.90;;;;;;5286079;28;20032;-31
2024/01/19 01:03:58;;;;;;;6.15;3.40;;;1.10;99.90;;;;;;5273274;28;20035;-32
2024/01/19 01:06:30;;;;;;;5.82;3.60;;;1.10;99.90;;;;;;5292151;28;20042;-31
2024/01/19 01:09:02;;;;;;;6.95;4.13;;;1.10;99.90;;;;;;5290925;28;20295;-31
2024/01/19 01:11:33;;;;;;;4.75;3.33;;;1.10;99.90;;;;;;5283546;28;20031;-31
2024/01/19 01:14:08;;;;;;;5.53;3.83;;;1.10;99.90;;;;;;5272330;28;21211;-31
2024/01/19 01:16:40;;;;;;;5.50;4.03;;;1.10;99.90;;;;;;5250555;28;20047;-31
2024/01/19 01:19:11;;;;;;;4.70;3.47;;;1.00;99.90;;;;;;5289718;28;20223;-32
2024/01/19 01:21:48;;;;;;;5.07;3.63;;;1.00;98.20;;;;;;5291596;28;20039;-32
2024/01/19 01:24:22;;;;;;;7.47;3.83;;;1.00;83.10;;;;;;5291236;28;20031;-32
2024/01/19 01:26:53;;;;;;;8.02;4.10;;;1.00;30.00;;;;;;5281940;28;20062;-36
2024/01/19 01:29:27;;;;;;;4.97;3.40;;;1.00;25.60;;;;;;5286116;28;20027;-31
2024/01/19 01:31:59;;;;;;;7.28;4.28;;;1.00;1.00;;;;;;5283840;28;20327;-32
2024/01/19 01:34:32;;;;;;;7.72;3.85;;;1.00;1.00;;;;;;5273481;28;20031;-32
2024/01/19 01:37:03;;;;;;;7.38;4.13;;;1.00;1.00;;;;;;5280060;28;20027;-32
2024/01/19 01:39:35;;;;;;;5.18;3.38;;;1.00;1.00;;;;;;5276900;28;20372;-32
2024/01/19 01:42:06;;;;;;;5.45;3.47;;;0.90;1.00;;;;;;5293737;27;20030;-32
2024/01/19 01:44:37;;;;;;;5.63;3.08;;;0.90;1.00;;;;;;5291821;28;20029;-31
2024/01/19 01:47:08;;;;;;;5.78;3.60;;;0.90;1.00;;;;;;5275218;28;20028;-36
2024/01/19 01:49:39;;;;;;;5.75;3.63;;;0.90;1.00;;;;;;5269239;28;20024;-36
2024/01/19 01:52:11;;;;;;;4.82;2.92;;;0.90;1.00;;;;;;5289538;28;20184;-41
2024/01/19 01:54:48;;;;;;;5.88;3.42;;;0.80;1.00;;;;;;5291497;28;20296;-36
2024/01/19 01:57:24;;;;;;;5.97;3.85;;;0.80;1.00;;;;;;5271168;28;20031;-36
2024/01/19 01:59:58;;;;;;;5.38;3.65;;;0.80;1.00;;;;;;5269056;28;20042;-36
2024/01/19 02:02:30;;;;;;;5.63;3.92;;;0.70;22.00;;;;;;5275408;28;20032;-36
2024/01/19 02:05:01;;;;;;;4.95;3.20;;;0.70;1.00;;;;;;5291556;28;20192;-36
2024/01/19 02:07:32;;;;;;;4.80;2.97;;;0.70;1.00;;;;;;5250293;28;20024;-36
2024/01/19 02:10:10;;;;;;;5.72;3.45;;;0.70;1.00;;;;;;5281906;28;20020;-36
2024/01/19 02:12:41;;;;;;;7.20;3.65;;;0.70;1.00;;;;;;5290269;28;20287;-36
2024/01/19 02:15:30;;;;;;;5.88;3.20;;;0.70;1.00;;;;;;5268617;28;20039;-36
2024/01/19 02:18:05;;;;;;;4.43;2.78;;;0.70;1.00;;;;;;5283834;28;20044;-35
2024/01/19 02:20:36;;;;;;;3.92;2.67;;;0.70;1.00;;;;;;5290205;28;20045;-34
2024/01/19 02:23:13;;;;;;;19.38;3.15;;;0.70;1.00;;;;;;5291553;28;20030;-33
2024/01/19 02:25:44;;;;;;;5.47;3.20;;;0.70;1.00;;;;;;5284077;28;20217;-37
2024/01/19 02:28:19;;;;;;;4.80;2.92;;;0.70;1.00;;;;;;5277047;28;20413;-32
2024/01/19 02:30:50;;;;;;;4.03;2.67;;;0.70;1.00;;;;;;5257718;28;20042;-32
2024/01/19 02:33:21;;;;;;;5.30;2.50;;;0.70;1.00;;;;;;5291333;28;20031;-32
2024/01/19 02:35:55;;;;;;;4.20;2.63;;;0.70;1.00;;;;;;5286376;28;20031;-32
2024/01/19 02:38:34;;;;;;;3.85;2.70;;;0.70;1.00;;;;;;5254024;28;20044;-32
2024/01/19 02:41:06;;;;;;;4.13;2.58;;;0.70;99.90;;;;;;5268271;28;20035;-33
2024/01/19 02:43:39;;;;;;;3.63;2.38;;;0.80;99.90;;;;;;5280875;28;20023;-32
2024/01/19 02:46:14;;;;;;;5.40;3.20;;;0.70;99.90;;;;;;5287163;28;20032;-32
2024/01/19 02:48:45;;;;;;;4.82;2.75;;;0.70;99.90;;;;;;5290152;28;20260;-34
2024/01/19 02:51:21;;;;;;;2.33;2.13;;;0.80;99.90;;;;;;5289737;28;20027;-34
2024/01/19 02:53:55;;;;;;;4.00;2.83;;;0.70;99.90;;;;;;5272991;28;20039;-34
2024/01/19 02:56:26;;;;;;;4.85;2.75;;;0.70;99.90;;;;;;5288808;28;20228;-33
2024/01/19 02:58:59;;;;;;;3.17;2.15;;;0.80;99.90;;;;;;5293225;28;20035;-33
2024/01/19 03:01:35;;;;;;;2.97;2.47;;;0.70;99.90;;;;;;5288000;28;20040;-31
2024/01/19 03:04:09;;;;;;;4.90;2.50;;;0.70;99.90;;;;;;5258830;28;20024;-31
2024/01/19 03:06:43;;;;;;;5.53;2.10;;;0.70;99.90;;;;;;5271021;28;20034;-33
2024/01/19 03:09:17;;;;;;;4.65;1.65;;;0.70;99.90;;;;;;5280459;28;20031;-32
2024/01/19 03:11:48;;;;;;;3.88;2.35;;;0.70;99.90;;;;;;5277536;28;20274;-31
2024/01/19 03:14:21;;;;;;;2.55;2.25;;;0.70;99.90;;;;;;5276161;28;20042;-31
2024/01/19 03:16:53;;;;;;;4.53;2.22;;;0.70;99.90;;;;;;5291238;28;20031;-31
2024/01/19 03:19:24;;;;;;;3.30;2.33;;;0.70;99.90;;;;;;5294409;28;20027;-32
2024/01/19 03:21:58;;;;;;;4.00;1.77;;;0.70;99.90;;;;;;5289377;28;20044;-31
2024/01/19 03:24:31;;;;;;;5.85;2.38;;;0.70;99.90;;;;;;5292748;28;20032;-36
2024/01/19 03:27:06;;;;;;;4.97;2.25;;;0.70;99.90;;;;;;5292836;28;20028;-32
2024/01/19 03:29:37;;;;;;;;;;;0.70;99.90;;;;;;5275191;28;20034;-31
2024/01/19 03:32:10;;;;;;;4.45;2.42;;;0.80;99.90;;;;;;5270318;28;20235;-32
2024/01/19 03:34:42;;;;;;;3.45;2.20;;;0.70;99.90;;;;;;5262017;28;20035;-31
2024/01/19 03:37:13;;;;;;;2.47;1.98;;;0.70;99.90;;;;;;5275722;28;20045;-31
2024/01/19 03:39:44;;;;;;;6.40;2.22;;;0.70;99.90;;;;;;5293902;28;20193;-31
2024/01/19 03:42:16;;;;;;;3.63;2.40;;;0.70;99.90;;;;;;5277454;28;20055;-31
2024/01/19 03:44:52;;;;;;;4.03;2.20;;;0.70;99.90;;;;;;5275856;28;20047;-31
2024/01/19 03:47:30;;;;;;;3.60;2.13;;;0.70;99.90;;;;;;5290018;27;20042;-30
2024/01/19 03:50:05;;;;;;;4.32;2.10;;;0.70;99.90;;;;;;5293120;28;20028;-31
2024/01/19 03:53:00;;;;;;;2.93;1.90;;;0.70;99.90;;;;;;5292342;27;20030;-31
2024/01/19 03:55:31;;;;;;;4.70;2.35;;;0.70;99.90;;;;;;5293152;28;20459;-31
2024/01/19 03:58:06;;;;;;;4.90;1.90;;;0.70;99.90;;;;;;5293305;28;20245;-36
2024/01/19 04:00:37;;;;;;;3.55;2.20;;;0.70;7.30;;;;;;5288555;28;20031;-31
2024/01/19 04:03:08;;;;;;;3.30;2.38;;;0.70;16.40;;;;;;5294009;28;20027;-31
2024/01/19 04:05:39;;;;;;;3.17;2.17;;;0.70;1.00;;;;;;5270980;28;20211;-31
2024/01/19 04:08:13;;;;;;;3.05;2.13;;;0.70;1.00;;;;;;5277887;28;20041;-31
2024/01/19 04:10:44;;;;;;;;;;;0.70;1.00;;;;;;5293282;28;20326;-31
2024/01/19 04:13:18;;;;;;;12.23;1.80;;;0.70;1.00;;;;;;5294363;28;19911;-31
2024/01/19 04:15:51;;;;;;;3.65;2.00;;;0.60;1.00;;;;;;5270336;28;20031;-31
2024/01/19 04:18:27;;;;;;;3.10;1.77;;;0.70;1.00;;;;;;5287538;28;20040;-31
2024/01/19 04:20:58;;;;;;;4.25;2.00;;;0.70;1.00;;;;;;5293254;28;20041;-31
2024/01/19 04:23:29;;;;;;;3.88;2.05;;;0.70;1.00;;;;;;5293347;28;20036;-32
2024/01/19 04:26:00;;;;;;;4.97;1.90;;;0.70;1.00;;;;;;5293571;28;20028;-31
2024/01/19 04:28:31;;;;;;;2.40;2.05;;;0.60;1.00;;;;;;5282690;28;20031;-32
2024/01/19 04:31:06;;;;;;;3.53;2.10;;;0.60;1.00;;;;;;5280337;28;20330;-31
2024/01/19 04:33:37;;;;;;;5.13;2.85;;;0.60;1.00;;;;;;5293934;28;20365;-31
2024/01/19 04:36:11;;;;;;;4.97;2.28;;;0.60;1.00;;;;;;5293726;28;20044;-31
2024/01/19 04:38:42;;;;;;;7.38;1.85;;;0.60;1.00;;;;;;5275727;28;20048;-31
2024/01/19 04:41:15;;;;;;;3.67;2.45;;;0.60;1.00;;;;;;5274876;28;20209;-31
2024/01/19 04:43:46;;;;;;;4.85;2.00;;;0.60;1.00;;;;;;5285963;28;20231;-32
2024/01/19 04:46:17;;;;;;;4.15;2.10;;;0.60;1.00;;;;;;5289419;28;20122;-31
2024/01/19 04:48:49;;;;;;;3.53;2.00;;;0.60;1.00;;;;;;5293698;28;20031;-31
2024/01/19 04:51:20;;;;;;;2.55;1.80;;;0.60;1.00;;;;;;5274780;28;20028;-31
2024/01/19 04:53:51;;;;;;;3.35;1.95;;;0.60;1.00;;;;;;5274962;28;20037;-31
2024/01/19 04:56:25;;;;;;;2.22;1.80;;;0.60;1.00;;;;;;5292357;28;20031;-31
2024/01/19 04:58:59;;;;;;;3.42;2.05;;;0.60;1.00;;;;;;5280122;28;20221;-31
2024/01/19 05:01:35;;;;;;;4.43;1.85;;;0.60;1.00;;;;;;5271247;28;20050;-31
2024/01/19 05:04:06;;;;;;;3.42;1.45;;;0.60;1.00;;;;;;5272049;28;20263;-31
2024/01/19 05:06:39;;;;;;;2.80;2.03;;;0.60;1.00;;;;;;5271791;28;20032;-31
2024/01/19 05:09:12;;;;;;;3.25;1.98;;;0.60;1.00;;;;;;5273932;28;20028;-31
2024/01/19 05:11:43;;;;;;;3.65;2.10;;;0.60;1.00;;;;;;5293020;28;20316;-32
2024/01/19 05:14:20;;;;;;;2.75;1.80;;;0.60;1.00;;;;;;5273331;28;20311;-31
2024/01/19 05:16:56;;;;;;;6.13;1.73;;;0.60;1.00;;;;;;5283427;28;20235;-31
2024/01/19 05:19:30;;;;;;;4.63;2.03;;;0.50;1.00;;;;;;5270326;28;20057;-31
2024/01/19 05:22:03;;;;;;;5.45;2.00;;;0.50;1.00;;;;;;5264902;28;20228;-32
2024/01/19 05:24:43;;;;;;;2.67;1.70;;;0.60;1.00;;;;;;5290668;28;20028;-32
2024/01/19 05:27:20;;;;;;;5.78;1.60;;;0.60;1.00;;;;;;5282494;28;20040;-31
2024/01/19 05:29:54;;;;;;;5.20;1.83;;;0.50;1.00;;;;;;5292297;28;20038;-31
2024/01/19 05:32:28;;;;;;;2.72;1.83;;;0.50;1.00;;;;;;5271545;28;20038;-31
2024/01/19 05:34:59;;;;;;;2.65;1.67;;;0.50;1.00;;;;;;5267339;27;20034;-31
2024/01/19 05:37:33;;;;;;;2.75;1.48;;;0.50;1.00;;;;;;5306852;27;20037;-31
2024/01/19 05:40:06;;;;;;;2.45;1.20;;;0.50;1.00;;;;;;5291776;28;20041;-32
2024/01/19 05:42:40;;;;;;;1.63;1.45;;;0.50;1.00;;;;;;5291337;28;20351;-32
2024/01/19 05:45:12;;;;;;;4.65;1.50;;;0.50;1.00;;;;;;5287380;28;20066;-32
2024/01/19 05:47:43;;;;;;;1.30;1.20;;;0.50;1.00;;;;;;5288580;28;20035;-32
2024/01/19 05:50:14;;;;;;;4.78;1.73;;;0.50;1.00;;;;;;5278034;28;20039;-32
2024/01/19 05:52:51;;;;;;;2.08;1.33;;;0.50;1.00;;;;;;5290968;28;20036;-32
2024/01/19 05:55:23;;;;;;;1.88;1.40;;;0.50;1.00;;;;;;5290830;28;20038;-36
2024/01/19 05:57:57;;;;;;;4.00;1.92;;;0.50;1.00;;;;;;5291282;28;20285;-33
2024/01/19 06:00:29;;;;;;;2.55;1.27;;;0.50;1.00;;;;;;5286840;28;20180;-30
2024/01/19 06:03:00;;;;;;;6.47;1.60;;;0.50;1.00;;;;;;5272248;28;20034;-30
2024/01/19 06:05:32;;;;;;;6.28;3.05;;;0.50;1.00;;;;;;5279023;28;20039;-33
2024/01/19 06:08:03;;;;;;;2.53;1.60;;;0.60;1.00;;;;;;5285350;28;20031;-33
2024/01/19 06:10:34;;;;;;;6.10;1.90;;;0.50;1.00;;;;;;5292075;28;20119;-33
2024/01/19 06:13:06;;;;;;;2.65;1.67;;;0.50;1.00;;;;;;5289803;28;20035;-33
2024/01/19 06:15:37;;;;;;;3.53;1.95;;;0.50;1.00;;;;;;5285309;28;20231;-33
2024/01/19 06:18:08;;;;;;;2.42;1.60;;;0.50;1.00;;;;;;5289548;28;20046;-33
2024/01/19 06:20:42;;;;;;;2.17;1.88;;;0.50;1.00;;;;;;5286151;28;20028;-35
2024/01/19 06:23:15;;;;;;;5.80;2.13;;;0.50;1.00;;;;;;5276730;28;20040;-32
2024/01/19 06:25:49;;;;;;;2.33;2.00;;;0.50;1.00;;;;;;5289187;28;20020;-31
2024/01/19 06:28:21;;;;;;;3.45;1.90;;;0.50;1.00;;;;;;5290626;28;20247;-32
2024/01/19 06:30:54;;;;;;;3.70;1.90;;;0.50;1.00;;;;;;5287091;28;20274;-32
2024/01/19 06:33:30;;;;;;;4.13;2.40;;;0.50;1.00;;;;;;5294537;28;20031;-32
2024/01/19 06:36:06;;;;;;;4.95;2.30;;;0.50;1.00;;;;;;5295510;28;20038;-32
2024/01/19 06:38:39;;;;;;;3.15;2.33;;;0.50;1.00;;;;;;5288556;28;20215;-32
2024/01/19 06:41:13;;;;;;;6.63;2.20;;;0.40;1.00;;;;;;5288912;28;20024;-32
2024/01/19 06:43:44;;;;;;;6.28;2.65;;;0.40;1.00;;;;;;5274497;28;20034;-32
2024/01/19 06:46:15;;;;;;;1.92;1.77;;;0.50;1.00;;;;;;5273569;28;20028;-33
2024/01/19 06:48:46;;;;;;;3.17;2.00;;;0.40;1.00;;;;;;5276680;28;20028;-31
2024/01/19 06:51:24;;;;;;;4.40;2.28;;;0.50;1.00;;;;;;5295641;28;20037;-31
2024/01/19 06:53:58;;;;;;;2.53;1.80;;;0.50;1.00;;;;;;5290196;28;20031;-34
2024/01/19 06:56:37;;;;;;;6.18;2.17;;;0.40;1.00;;;;;;5279195;28;20776;-33
2024/01/19 06:59:08;;;;;;;5.03;2.08;;;0.50;1.00;;;;;;5294056;28;20031;-31
2024/01/19 07:01:39;;;;;;;2.35;1.60;;;0.50;1.00;;;;;;5292013;28;20033;-32
2024/01/19 07:04:11;;;;;;;8.38;2.70;;;0.50;1.00;;;;;;5275131;28;20031;-31
2024/01/19 07:06:45;;;;;;;3.17;2.10;;;0.50;1.00;;;;;;5276534;28;20028;-31
2024/01/19 07:09:17;;;;;;;;;;;0.50;1.00;;;;;;5274268;28;20031;-30
2024/01/19 07:11:51;;;;;;;4.00;2.58;;;0.50;1.00;;;;;;5270439;28;19911;-32
2024/01/19 07:14:26;;;;;;;4.78;2.78;;;0.50;1.00;;;;;;5290340;28;20033;-32
2024/01/19 07:17:02;;;;;;;6.30;2.03;;;0.60;1.00;;;;;;5279745;28;20065;-32
2024/01/19 07:19:39;;;;;;;3.72;1.73;;;0.50;1.00;;;;;;5286517;28;20040;-31
2024/01/19 07:22:10;;;;;;;2.17;1.98;;;0.50;1.00;;;;;;5263766;28;20039;-32
2024/01/19 07:24:42;;;;;;;3.28;1.80;;;0.50;1.00;;;;;;5266319;28;20032;-32
2024/01/19 07:27:13;;;;;;;4.22;2.15;;;0.50;1.00;;;;;;5263619;28;20036;-31
2024/01/19 07:29:44;;;;;;;3.97;1.85;;;0.50;1.00;;;;;;5270431;27;20549;-32
2024/01/19 07:32:21;;;;;;;4.93;2.00;;;0.50;1.00;;;;;;5286969;28;20034;-32
2024/01/19 07:34:56;;;;;;;3.30;2.20;;;0.50;1.00;;;;;;5293085;28;20063;-32
2024/01/19 07:37:29;;;;;;;3.90;2.10;;;0.50;1.00;;;;;;5286731;28;20227;-32
2024/01/19 07:40:01;;;;;;;6.97;2.50;;;0.50;1.00;;;;;;5285021;28;20035;-32
2024/01/19 07:42:34;;;;;;;3.20;2.05;;;0.50;1.00;;;;;;5291063;28;20042;-32
2024/01/19 07:45:09;;;;;;;6.07;1.95;;;0.50;1.00;;;;;;5280027;28;20035;-32
2024/01/19 07:47:40;;;;;;;2.92;2.10;;;0.60;1.00;;;;;;5247304;28;20040;-32
2024/01/19 07:50:15;;;;;;;7.75;2.60;;;0.60;1.00;;;;;;5271122;28;20231;-32
2024/01/19 07:52:46;;;;;;;6.35;2.03;;;0.60;1.00;;;;;;5272106;28;20027;-34
2024/01/19 07:55:20;;;;;;;8.10;1.83;;;0.60;1.00;;;;;;5272252;28;20319;-31
2024/01/19 07:57:53;;;;;;;3.17;2.17;;;0.60;1.00;;;;;;5271412;28;20028;-32
2024/01/19 08:00:27;;;;;;;3.67;2.25;;;0.60;1.00;;;;;;5265569;28;21133;-31
2024/01/19 08:03:04;;;;;;;4.70;1.95;;;0.70;1.00;;;;;;5268871;28;20031;-31
2024/01/19 08:05:43;;;;;;;4.72;2.75;;;0.70;1.00;;;;;;5267990;28;20032;-32
2024/01/19 08:08:15;;;;;;;4.25;1.90;;;0.70;1.00;;;;;;5270445;28;20042;-31
2024/01/19 08:10:46;;;;;;;3.88;2.30;;;0.80;1.00;;;;;;5261874;28;20016;-32
2024/01/19 08:13:17;;;;;;;3.88;2.72;;;0.80;1.00;;;;;;5266181;28;20334;-32
2024/01/19 08:15:49;;;;;;;5.88;2.58;;;0.70;1.00;;;;;;5263589;28;20062;-31
2024/01/19 08:18:20;;;;;;;2.00;1.73;;;0.70;1.00;;;;;;5265505;28;20039;-32
2024/01/19 08:20:52;;;;;;;3.70;2.13;;;0.70;1.00;;;;;;5242103;28;20043;-31
2024/01/19 08:23:23;;;;;;;14.88;2.70;;;0.70;1.00;;;;;;5266344;28;20028;-32
2024/01/19 08:25:55;;;;;;;2.83;2.20;;;0.70;1.00;;;;;;5266824;28;20061;-31
2024/01/19 08:28:26;;;;;;;3.95;2.60;;;0.80;1.00;;;;;;5267035;28;20201;-31
2024/01/19 08:30:57;;;;;;;4.32;2.33;;;0.80;1.00;;;;;;5263746;28;20032;-31
2024/01/19 08:33:29;;;;;;;5.88;2.70;;;0.80;1.00;;;;;;5262059;28;20032;-31
2024/01/19 08:36:06;;;;;;;3.38;2.22;;;0.90;1.00;;;;;;5246518;28;20357;-32
2024/01/19 08:38:38;;;;;;;3.28;2.47;;;0.80;1.00;;;;;;5265545;28;20039;-32
2024/01/19 08:41:11;;;;;;;4.57;2.47;;;0.80;1.00;;;;;;5265981;28;20304;-32
2024/01/19 08:43:47;;;;;;;5.50;2.70;;;0.70;1.00;;;;;;5247942;28;20324;-32
2024/01/19 08:46:21;;;;;;;7.57;3.08;;;0.70;1.00;;;;;;5257680;28;20047;-31
2024/01/19 08:48:52;;;;;;;7.90;3.25;;;0.80;1.00;;;;;;5245627;28;20385;-31
2024/01/19 08:51:24;;;;;;;4.00;2.53;;;0.80;1.00;;;;;;5242191;28;20058;-36
2024/01/19 08:53:55;;;;;;;3.78;2.03;;;0.80;1.00;;;;;;5256607;28;20039;-31
2024/01/19 08:56:27;;;;;;;3.50;2.72;;;0.80;1.00;;;;;;5243194;28;20048;-31
2024/01/19 08:58:58;;;;;;;4.63;2.53;;;0.80;1.00;;;;;;5244416;28;20039;-31
2024/01/19 09:01:31;;;;;;;8.13;3.10;;;0.80;1.00;;;;;;5241195;28;20332;-31
2024/01/19 09:04:03;;;;;;;6.38;2.60;;;0.90;1.00;;;;;;5244976;28;20379;-31
2024/01/19 09:06:34;;;;;;;5.47;2.80;;;0.90;1.00;;;;;;5241185;28;20356;-31
2024/01/19 09:09:08;;;;;;;2.47;2.22;;;0.90;1.00;;;;;;5239915;28;20036;-31
2024/01/19 09:11:41;;;;;;;4.05;2.92;;;0.90;99.90;;;;;;5245043;28;20036;-31
2024/01/19 09:14:13;;;;;;;5.05;3.22;;;0.90;99.90;;;;;;5242308;28;20032;-31
2024/01/19 09:16:45;;;;;;;5.65;2.80;;;0.90;99.90;;;;;;5235438;28;20943;-35
2024/01/19 09:19:16;;;;;;;5.43;2.95;;;0.90;99.90;;;;;;5258937;28;20055;-32
2024/01/19 09:21:50;;;;;;;3.88;2.47;;;1.00;99.90;;;;;;5244465;28;20282;-32
2024/01/19 09:24:22;;;;;;;4.25;2.40;;;1.00;99.90;;;;;;5244650;28;20072;-31
2024/01/19 09:26:55;;;;;;;3.08;2.10;;;1.00;99.90;;;;;;5243301;28;20225;-31
2024/01/19 09:29:31;;;;;;;3.53;2.70;;;0.90;99.90;;;;;;5244444;28;20279;-31
2024/01/19 09:32:03;;;;;;;5.63;3.47;;;1.00;99.90;;;;;;5237858;28;20426;-31
2024/01/19 09:34:35;;;;;;;4.60;3.03;;;1.00;99.90;;;;;;5244311;28;20020;-30
2024/01/19 09:37:06;;;;;;;3.38;2.85;;;1.10;99.90;;;;;;5244581;28;20032;-30
2024/01/19 09:39:37;;;;;;;4.63;3.30;;;1.10;99.90;;;;;;5244555;28;20028;-30
2024/01/19 09:42:22;;;;;;;6.38;3.30;;;1.20;99.90;;;;;;5245282;28;20036;-32
2024/01/19 09:45:02;;;;;;;5.63;3.38;;;1.30;99.90;;;;;;5244883;28;20032;-30
2024/01/19 09:48:10;;;;;;;7.10;3.05;;;1.20;99.90;;;;;;5236339;28;20247;-30
2024/01/19 09:50:48;;;;;;;4.15;2.97;;;1.10;99.90;;;;;;5234218;28;20024;-32
2024/01/19 09:53:23;;;;;;;5.93;2.97;;;1.20;99.90;;;;;;5228807;28;20308;-32
2024/01/19 09:55:54;;;;;;;3.90;2.45;;;1.10;99.90;;;;;;5240477;28;20047;-32
2024/01/19 09:58:27;;;;;;;6.53;2.33;;;1.10;99.90;;;;;;5245567;28;20046;-33
2024/01/19 10:01:00;;;;;;;5.35;3.08;;;1.20;99.90;;;;;;5230425;28;20333;-31
2024/01/19 10:03:33;;;;;;;3.55;2.20;;;1.10;99.90;;;;;;5235339;28;20059;-31
2024/01/19 10:06:04;;;;;;;3.50;2.33;;;1.10;99.90;;;;;;5248778;28;20039;-31
2024/01/19 10:08:38;;;;;;;3.40;2.20;;;1.10;99.90;;;;;;5243885;28;20260;-31
2024/01/19 10:11:14;;;;;;;5.07;3.13;;;1.10;99.90;;;;;;5228530;28;20031;-31
2024/01/19 10:13:48;;;;;;;4.03;2.35;;;1.20;99.90;;;;;;5242444;28;20032;-31
2024/01/19 10:16:25;;;;;;;2.85;2.30;;;1.20;99.90;;;;;;5239280;28;20038;-30
2024/01/19 10:18:57;;;;;;;5.82;2.75;;;1.30;99.90;;;;;;5243288;28;20050;-30
2024/01/19 10:21:35;;;;;;;3.47;3.00;;;1.40;99.90;;;;;;5246085;28;20036;-31
2024/01/19 10:24:19;;;;;;;4.57;2.90;;;1.40;59.80;;;;;;5243777;28;20032;-33
2024/01/19 10:26:52;;;;;;;4.68;2.65;;;1.50;34.50;;;;;;5245273;28;20028;-31
2024/01/19 10:29:31;;;;;;;10.52;2.40;;;1.60;43.30;;;;;;5248906;28;20038;-30
2024/01/19 10:32:05;;;;;;;5.30;2.40;;;1.50;1.00;;;;;;5246037;28;20043;-35
2024/01/19 10:34:36;;;;;;;4.53;2.03;;;1.40;1.00;;;;;;5241548;28;20024;-30
2024/01/19 10:37:09;;;;;;;5.30;2.40;;;1.40;1.00;;;;;;5248952;28;20036;-30
2024/01/19 10:39:43;;;;;;;4.20;2.65;;;1.40;1.00;;;;;;5248349;28;20040;-32
2024/01/19 10:42:20;;;;;;;5.38;3.33;;;1.40;1.00;;;;;;5247764;28;20225;-32
2024/01/19 10:44:54;;;;;;;7.35;3.22;;;1.50;1.00;;;;;;5242725;28;20047;-32
2024/01/19 10:47:31;;;;;;;5.82;2.88;;;1.70;1.00;;;;;;5254197;28;20039;-32
2024/01/19 10:50:08;;;;;;;7.60;3.47;;;1.70;1.00;;;;;;5256327;28;20039;-32
2024/01/19 10:52:46;;;;;;;3.72;2.75;;;1.80;1.00;;;;;;5251433;28;20028;-32
2024/01/19 10:55:29;;;;;;;5.55;2.97;;;1.90;1.00;;;;;;5254463;28;20226;-32
2024/01/19 10:58:03;;;;;;;3.60;2.70;;;1.90;1.00;;;;;;5249328;28;20235;-32
2024/01/19 11:00:41;;;;;;;4.60;2.78;;;1.90;1.00;;;;;;5247540;28;20484;-32
2024/01/19 11:03:13;;;;;;;4.63;3.13;;;1.90;1.00;;;;;;5266419;28;20410;-32
2024/01/19 11:05:51;;;;;;;4.57;3.33;;;2.10;1.00;;;;;;5268529;28;20031;-35
2024/01/19 11:08:28;;;;;;;5.60;2.95;;;2.20;1.00;;;;;;5260790;28;20036;-31
2024/01/19 11:11:00;;;;;;;5.22;2.67;;;2.20;1.00;;;;;;5264013;28;20028;-31
2024/01/19 11:13:42;;;;;;;4.85;2.88;;;2.20;1.00;;;;;;5258618;28;20035;-31
2024/01/19 11:16:27;;;;;;;6.10;3.15;;;2.00;1.00;;;;;;5264441;28;20024;-31
2024/01/19 11:19:02;;;;;;;4.82;3.00;;;1.90;1.00;;;;;;5255443;28;20031;-32
2024/01/19 11:21:34;;;;;;;5.18;2.35;;;2.10;1.00;;;;;;5270897;28;20239;-31
2024/01/19 11:24:07;;;;;;;3.75;3.00;;;2.20;1.00;;;;;;5254537;28;20024;-30
2024/01/19 11:26:44;;;;;;;5.35;2.50;;;2.20;1.00;;;;;;5254244;28;20036;-30
2024/01/19 11:29:25;;;;;;;4.05;2.65;;;2.30;1.00;;;;;;5273582;28;20028;-31
2024/01/19 11:31:58;;;;;;;2.67;2.35;;;2.40;1.00;;;;;;5269345;28;20244;-30
2024/01/19 11:34:41;;;;;;;5.25;2.50;;;2.30;1.00;;;;;;5270946;28;20023;-30
2024/01/19 11:37:43;;;;;;;3.95;2.55;;;2.30;1.00;;;;;;5269876;28;20321;-30
2024/01/19 11:40:35;;;;;;;3.38;2.28;;;2.40;1.00;;;;;;5237056;28;20026;-30
2024/01/19 11:43:06;;;;;;;7.80;2.75;;;2.30;1.00;;;;;;5269846;28;20033;-31
2024/01/19 11:45:42;;;;;;;4.85;2.58;;;2.30;1.00;;;;;;5269216;28;20331;-31
2024/01/19 11:48:45;;;;;;;3.80;2.30;;;2.30;1.00;;;;;;5274801;28;20039;-31
2024/01/19 11:51:37;;;;;;;3.75;2.38;;;2.30;1.00;;;;;;5273962;28;20036;-30
2024/01/19 11:54:14;;;;;;;5.68;2.45;;;2.20;1.00;;;;;;5281713;28;20385;-30
2024/01/19 11:56:45;;;;;;;4.07;2.55;;;2.30;1.00;;;;;;5292400;28;20035;-33
2024/01/19 11:59:21;;;;;;;4.95;2.65;;;2.20;1.00;;;;;;5274268;28;20035;-31
2024/01/19 12:01:55;;;;;;;4.65;3.03;;;2.20;1.00;;;;;;5289921;28;20031;-31
2024/01/19 12:04:26;;;;;;;5.53;2.47;;;2.40;1.00;;;;;;5293254;28;20032;-35
2024/01/19 12:07:06;;;;;;;5.57;3.05;;;2.30;1.00;;;;;;5293015;28;20027;-32
2024/01/19 12:09:37;;;;;;;3.25;2.38;;;2.40;1.00;;;;;;5280875;28;20304;-31
2024/01/19 12:12:11;;;;;;;3.05;2.08;;;2.30;1.00;;;;;;5289569;28;20031;-31
2024/01/19 12:14:42;;;;;;;3.58;2.22;;;2.30;1.00;;;;;;5292666;28;20023;-31
2024/01/19 12:17:14;;;;;;;4.40;2.28;;;2.30;1.00;;;;;;5288089;28;20023;-33
2024/01/19 12:19:51;;;;;;;3.50;2.20;;;2.40;1.00;;;;;;5293093;28;20019;-32
2024/01/19 12:22:22;;;;;;;4.72;2.25;;;2.20;1.00;;;;;;5270444;28;20036;-32
2024/01/19 12:25:14;;;;;;;6.25;3.05;;;2.40;1.00;;;;;;5289948;28;20036;-32
2024/01/19 12:27:47;;;;;;;6.75;3.10;;;2.20;1.00;;;;;;5280436;28;20031;-31
2024/01/19 12:30:19;;;;;;;4.65;2.90;;;2.30;1.00;;;;;;5267885;28;20370;-32
2024/01/19 12:32:50;;;;;;;5.22;2.70;;;2.20;1.00;;;;;;5282213;28;20024;-31
2024/01/19 12:35:24;;;;;;;5.03;2.40;;;2.20;1.00;;;;;;5290546;28;20049;-31
2024/01/19 12:37:55;;;;;;;5.10;3.42;;;2.40;1.00;;;;;;5291551;28;20031;-35
2024/01/19 12:40:29;;;;;;;4.68;2.90;;;2.40;1.00;;;;;;5291274;28;20045;-30
2024/01/19 12:43:03;;;;;;;3.85;2.63;;;2.40;1.00;;;;;;5287138;28;20049;-30
2024/01/19 12:45:37;;;;;;;4.03;2.67;;;2.50;1.00;;;;;;5269354;28;20031;-30
2024/01/19 12:48:09;;;;;;;3.67;2.88;;;2.60;1.00;;;;;;5291470;28;20043;-31
2024/01/19 12:50:41;;;;;;;6.55;3.28;;;2.60;1.00;;;;;;5291410;28;20031;-31
2024/01/19 12:53:14;;;;;;;3.67;2.70;;;2.60;1.00;;;;;;5291697;28;20027;-31
2024/01/19 12:55:51;;;;;;;2.93;2.63;;;2.80;1.00;;;;;;5291121;28;20035;-32
2024/01/19 12:58:23;;;;;;;5.28;2.50;;;2.60;1.00;;;;;;5269633;28;20418;-32
2024/01/19 13:01:04;;;;;;;4.00;2.67;;;2.80;1.00;;;;;;5279565;28;20042;-31
2024/01/19 13:03:36;;;;;;;2.97;2.50;;;3.10;1.00;;;;;;5290986;28;20039;-32
2024/01/19 13:06:10;;;;;;;4.20;2.67;;;3.00;1.00;;;;;;5290925;28;20043;-32
2024/01/19 13:08:42;;;;;;;;;;;2.70;1.00;;;;;;5291840;28;20038;-32
2024/01/19 13:11:13;;;;;;;3.85;2.38;;;2.40;1.00;;;;;;5291406;28;20103;-32
2024/01/19 13:13:58;;;;;;;2.63;2.38;;;2.30;1.00;;;;;;5292322;28;20022;-33
2024/01/19 13:16:30;;;;;;;3.42;2.15;;;2.30;1.00;;;;;;5277519;28;20028;-33
2024/01/19 13:19:12;;;;;;;2.90;1.95;;;2.30;1.00;;;;;;5284787;28;20028;-33
2024/01/19 13:21:43;;;;;;;2.83;2.38;;;2.00;1.00;;;;;;5287044;28;20370;-33
2024/01/19 13:24:14;;;;;;;4.85;2.40;;;2.00;1.00;;;;;;5286905;28;20047;-33
2024/01/19 13:26:56;;;;;;;5.80;2.40;;;2.20;1.00;;;;;;5285718;28;20058;-33
2024/01/19 13:29:28;;;;;;;3.35;2.00;;;2.30;1.00;;;;;;5287203;28;20211;-31
2024/01/19 13:31:59;;;;;;;7.13;3.08;;;2.30;1.00;;;;;;5282256;28;20243;-31
2024/01/19 13:34:31;;;;;;;4.75;2.15;;;2.20;1.00;;;;;;5287538;28;20273;-31
2024/01/19 13:37:02;;;;;;;3.03;2.10;;;2.10;1.00;;;;;;5289129;28;20046;-33
2024/01/19 13:39:37;;;;;;;4.10;2.00;;;2.10;1.00;;;;;;5290973;28;20038;-33